Time;durP1;ratioP1;P1;durP2;ratioP2;P2;SDS_P1;SDS_P2;PMS_P1;PMS_P2;Temp;Humidity;BMP_temperature;BMP_pressure;BME280_temperature;BME280_humidity;BME280_pressure;Samples;Min_cycle;Max_cycle;Signal;HPM_P1;HPM_P2
2020/12/17 00:00:44;;;;;;;42.95;27.13;;;;;;;1.89;83.78;101428.94;1811279;79;20981;-57
2020/12/17 00:03:11;;;;;;;44.70;27.55;;;;;;;1.90;83.90;101432.80;1811410;79;21610;-57
2020/12/17 00:05:39;;;;;;;44.55;28.25;;;;;;;1.92;83.94;101433.97;1811231;79;21048;-57
2020/12/17 00:08:08;;;;;;;40.43;25.48;;;;;;;1.90;83.91;101437.37;1811339;79;21583;-57
2020/12/17 00:10:38;;;;;;;37.78;24.15;;;;;;;1.89;83.93;101445.20;1811328;79;21307;-56
2020/12/17 00:13:06;;;;;;;38.92;24.05;;;;;;;1.89;84.00;101446.55;1811383;79;21582;-56
2020/12/17 00:15:34;;;;;;;38.35;25.27;;;;;;;1.89;84.02;101449.26;1811150;79;20993;-57
2020/12/17 00:18:02;;;;;;;41.18;23.00;;;;;;;1.91;84.05;101447.19;1811310;79;21033;-56
2020/12/17 00:20:29;;;;;;;40.08;24.75;;;;;;;1.91;84.01;101451.25;1811214;79;21001;-57
2020/12/17 00:22:59;;;;;;;42.25;24.27;;;;;;;1.92;84.03;101450.75;1810718;79;22291;-57
2020/12/17 00:25:27;;;;;;;44.63;25.55;;;;;;;1.93;84.02;101452.41;1811369;79;21040;-56
2020/12/17 00:27:54;;;;;;;38.67;21.85;;;;;;;1.92;83.88;101451.58;1811503;79;21024;-57
2020/12/17 00:30:22;;;;;;;41.05;24.05;;;;;;;1.90;83.93;101463.11;1811616;79;21013;-57
2020/12/17 00:32:50;;;;;;;44.03;25.82;;;;;;;1.87;83.97;101447.23;1811549;78;21056;-57
2020/12/17 00:35:19;;;;;;;43.68;25.55;;;;;;;1.86;84.05;101451.00;1811532;79;22289;-56
2020/12/17 00:37:47;;;;;;;45.38;27.55;;;;;;;1.81;84.17;101446.66;1811446;79;20997;-57
2020/12/17 00:40:15;;;;;;;39.33;24.27;;;;;;;1.80;84.28;101448.53;1811596;79;21024;-57
2020/12/17 00:42:45;;;;;;;39.10;22.42;;;;;;;1.81;84.40;101446.13;1811455;79;20942;-57
2020/12/17 00:45:14;;;;;;;43.90;25.37;;;;;;;1.84;84.43;101446.27;1811498;79;21028;-57
2020/12/17 00:47:43;;;;;;;46.65;27.00;;;;;;;1.89;84.56;101446.55;1811540;78;22103;-57
2020/12/17 00:50:12;;;;;;;48.10;26.80;;;;;;;1.96;84.46;101446.60;1811245;79;21017;-56
2020/12/17 00:52:40;;;;;;;39.92;23.65;;;;;;;1.97;84.41;101442.38;1811597;79;21016;-57
2020/12/17 00:55:09;;;;;;;46.60;26.05;;;;;;;1.98;84.31;101434.55;1811497;79;21005;-57
2020/12/17 00:57:37;;;;;;;39.90;24.72;;;;;;;1.97;84.31;101438.31;1811375;79;20985;-57
2020/12/17 01:00:07;;;;;;;39.75;25.27;;;;;;;1.99;84.33;101422.69;1811545;79;21202;-57
2020/12/17 01:02:35;;;;;;;53.02;26.77;;;;;;;2.00;84.21;101422.16;1811188;79;21052;-57
2020/12/17 01:05:05;;;;;;;47.55;25.72;;;;;;;1.97;84.22;101419.84;1811385;79;20961;-57
2020/12/17 01:07:34;;;;;;;60.90;30.37;;;;;;;1.93;84.40;101415.34;1811296;79;21004;-57
2020/12/17 01:10:04;;;;;;;46.28;26.73;;;;;;;1.93;84.46;101412.63;1811499;79;21013;-57
2020/12/17 01:12:32;;;;;;;49.83;26.97;;;;;;;1.94;84.47;101416.16;1811530;79;22380;-57
2020/12/17 01:14:59;;;;;;;50.30;25.25;;;;;;;1.94;84.51;101408.86;1811365;79;21488;-57
2020/12/17 01:17:27;;;;;;;44.53;23.42;;;;;;;1.94;84.65;101409.39;1811406;79;21001;-56
2020/12/17 01:19:55;;;;;;;44.40;24.77;;;;;;;1.95;84.64;101401.59;1811320;79;21037;-57
2020/12/17 01:22:23;;;;;;;46.60;27.95;;;;;;;1.96;84.57;101401.89;1811490;79;21001;-57
2020/12/17 01:24:51;;;;;;;45.28;25.32;;;;;;;1.96;84.57;101405.46;1811508;79;22248;-57
2020/12/17 01:27:19;;;;;;;38.95;21.65;;;;;;;1.97;84.58;101410.36;1811265;79;20925;-56
2020/12/17 01:29:48;;;;;;;45.20;23.87;;;;;;;1.98;84.59;101412.87;1811648;79;21017;-57
2020/12/17 01:32:17;;;;;;;39.50;23.07;;;;;;;1.99;84.62;101413.20;1811210;79;21017;-57
2020/12/17 01:34:45;;;;;;;42.60;24.63;;;;;;;2.04;84.65;101413.48;1811451;78;20945;-57
2020/12/17 01:37:14;;;;;;;38.35;23.95;;;;;;;2.08;84.58;101409.32;1810137;79;21603;-57
2020/12/17 01:39:42;;;;;;;40.38;21.87;;;;;;;2.13;84.49;101416.90;1811391;79;21012;-56
2020/12/17 01:42:10;;;;;;;43.75;21.85;;;;;;;2.20;84.47;101419.16;1811507;79;21000;-57
2020/12/17 01:44:43;;;;;;;36.33;22.30;;;;;;;2.21;84.20;101418.10;1811309;79;21038;-57
2020/12/17 01:47:11;;;;;;;34.43;20.40;;;;;;;2.22;84.10;101431.16;1781408;78;21091;-57
2020/12/17 01:49:38;;;;;;;35.80;21.15;;;;;;;2.25;84.09;101434.30;1824303;78;21364;-58
2020/12/17 01:52:06;;;;;;;35.40;19.98;;;;;;;2.27;83.92;101435.47;1794950;78;21043;-57
2020/12/17 01:54:34;;;;;;;36.03;20.25;;;;;;;2.28;83.84;101441.75;1824486;78;21594;-57
2020/12/17 01:57:04;;;;;;;29.45;18.35;;;;;;;2.30;83.98;101440.53;1824394;78;21583;-57
2020/12/17 01:59:48;;;;;;;30.25;18.57;;;;;;;2.31;83.69;101434.05;1824461;78;21578;-57
2020/12/17 02:02:18;;;;;;;32.13;19.57;;;;;;;2.30;83.48;101431.53;1824376;78;22267;-57
2020/12/17 02:04:46;;;;;;;31.85;18.82;;;;;;;2.25;83.58;101425.34;1824329;78;21028;-57
2020/12/17 02:07:14;;;;;;;30.05;18.35;;;;;;;2.23;83.59;101422.83;1824325;78;20926;-57
2020/12/17 02:09:44;;;;;;;33.20;20.40;;;;;;;2.21;83.58;101420.81;1824167;78;20945;-57
2020/12/17 02:12:12;;;;;;;33.50;18.82;;;;;;;2.22;83.74;101413.54;1824374;78;21027;-57
2020/12/17 02:14:40;;;;;;;32.67;19.73;;;;;;;2.23;83.70;101409.80;1824391;78;21589;-57
2020/12/17 02:17:08;;;;;;;27.22;18.25;;;;;;;2.23;83.73;101401.14;1824325;78;21051;-57
2020/12/17 02:19:36;;;;;;;33.35;20.23;;;;;;;2.26;83.68;101412.13;1824197;78;21028;-56
2020/12/17 02:22:04;;;;;;;29.63;18.23;;;;;;;2.30;83.80;101416.13;1824336;78;21013;-57
2020/12/17 02:24:32;;;;;;;28.80;17.67;;;;;;;2.35;83.66;101419.08;1824317;78;21008;-57
2020/12/17 02:27:00;;;;;;;33.13;22.50;;;;;;;2.38;83.64;101426.81;1824313;78;21197;-57
2020/12/17 02:29:28;;;;;;;26.70;17.07;;;;;;;2.42;83.56;101422.69;1824295;78;21024;-57
2020/12/17 02:31:57;;;;;;;24.80;17.10;;;;;;;2.44;83.33;101420.30;1824270;78;20992;-57
2020/12/17 02:34:26;;;;;;;22.62;15.90;;;;;;;2.40;83.27;101423.41;1824226;77;20996;-57
2020/12/17 02:36:53;;;;;;;25.95;17.07;;;;;;;2.41;83.34;101434.59;1824512;78;21992;-57
2020/12/17 02:39:21;;;;;;;26.27;17.10;;;;;;;2.43;83.30;101428.97;1824369;78;22098;-56
2020/12/17 02:41:49;;;;;;;27.70;16.15;;;;;;;2.47;83.29;101441.60;1824373;78;21696;-57
2020/12/17 02:44:17;;;;;;;22.67;14.73;;;;;;;2.47;83.22;101435.66;1824236;78;20992;-57
2020/12/17 02:46:46;;;;;;;21.85;15.48;;;;;;;2.45;83.11;101432.84;1824452;78;22035;-57
2020/12/17 02:49:13;;;;;;;25.70;16.57;;;;;;;2.38;83.10;101444.44;1813277;77;21528;-57
2020/12/17 02:51:41;;;;;;;21.37;15.90;;;;;;;2.35;83.21;101444.00;1797943;79;22272;-56
2020/12/17 02:54:09;;;;;;;29.20;17.57;;;;;;;2.32;83.34;101437.09;1797714;79;20982;-57
2020/12/17 02:56:38;;;;;;;24.45;14.55;;;;;;;2.33;83.35;101433.36;1797699;79;20990;-56
2020/12/17 02:59:06;;;;;;;26.00;16.10;;;;;;;2.31;83.26;101434.05;1797720;79;20938;-57
2020/12/17 03:01:34;;;;;;;24.87;18.00;;;;;;;2.27;83.29;101435.47;1797686;79;20979;-57
2020/12/17 03:04:02;;;;;;;23.00;14.45;;;;;;;2.27;83.43;101442.24;1797819;79;21272;-57
2020/12/17 03:06:30;;;;;;;23.38;14.95;;;;;;;2.30;83.60;101433.75;1797681;79;20990;-57
2020/12/17 03:08:59;;;;;;;30.02;18.82;;;;;;;2.31;83.44;101444.89;1797730;79;21029;-57
2020/12/17 03:11:27;;;;;;;28.65;19.55;;;;;;;2.27;83.56;101440.89;1797831;79;21041;-57
2020/12/17 03:13:55;;;;;;;26.68;16.17;;;;;;;2.24;83.62;101438.56;1797743;79;21021;-57
2020/12/17 03:16:23;;;;;;;31.68;19.95;;;;;;;2.23;83.77;101436.91;1797739;79;21571;-57
2020/12/17 03:18:51;;;;;;;27.90;19.30;;;;;;;2.22;83.65;101450.14;1797702;79;21080;-57
2020/12/17 03:21:19;;;;;;;26.15;16.82;;;;;;;2.21;83.88;101448.45;1797735;79;20978;-57
2020/12/17 03:23:47;;;;;;;27.77;17.00;;;;;;;2.24;83.92;101457.55;1797693;79;20986;-57
2020/12/17 03:26:15;;;;;;;24.70;16.35;;;;;;;2.21;83.86;101456.58;1797768;79;21037;-57
2020/12/17 03:28:43;;;;;;;27.30;16.57;;;;;;;2.23;84.03;101451.83;1797858;79;22102;-57
2020/12/17 03:31:11;;;;;;;26.40;18.25;;;;;;;2.29;84.17;101456.46;1797855;79;22009;-57
2020/12/17 03:33:39;;;;;;;26.68;18.05;;;;;;;2.36;83.98;101461.44;1797743;79;22060;-57
2020/12/17 03:36:07;;;;;;;21.23;15.98;;;;;;;2.34;83.84;101458.06;1797823;79;21614;-57
2020/12/17 03:38:36;;;;;;;23.05;15.75;;;;;;;2.33;83.93;101465.89;1797324;78;21654;-57
2020/12/17 03:41:04;;;;;;;26.42;14.90;;;;;;;2.33;83.93;101466.39;1797841;79;21202;-56
2020/12/17 03:43:32;;;;;;;20.25;14.90;;;;;;;2.34;84.00;101472.98;1797631;79;21018;-57
2020/12/17 03:46:01;;;;;;;26.30;15.88;;;;;;;2.36;83.95;101472.81;1797711;79;21022;-57
2020/12/17 03:48:28;;;;;;;24.50;15.72;;;;;;;2.34;83.88;101470.27;1808281;78;21018;-57
2020/12/17 03:50:56;;;;;;;23.75;16.20;;;;;;;2.34;83.87;101474.86;1824256;78;21001;-57
2020/12/17 03:53:24;;;;;;;21.27;13.98;;;;;;;2.34;84.07;101475.69;1824249;78;21186;-57
2020/12/17 03:55:52;;;;;;;24.87;15.80;;;;;;;2.38;83.95;101481.58;1824249;78;21023;-56
2020/12/17 03:58:21;;;;;;;25.45;16.97;;;;;;;2.35;83.88;101477.91;1824337;78;21158;-57
2020/12/17 04:00:49;;;;;;;22.75;16.90;;;;;;;2.39;83.98;101477.84;1824429;78;20986;-57
2020/12/17 04:03:17;;;;;;;23.65;15.20;;;;;;;2.42;84.02;101474.20;1824315;78;21032;-56
2020/12/17 04:05:45;;;;;;;22.25;16.30;;;;;;;2.47;83.96;101479.58;1824515;78;21190;-57
2020/12/17 04:08:13;;;;;;;23.52;15.93;;;;;;;2.52;83.94;101486.62;1824371;78;21023;-57
2020/12/17 04:10:41;;;;;;;25.15;15.80;;;;;;;2.54;83.85;101489.47;1824422;78;21040;-57
2020/12/17 04:13:09;;;;;;;24.95;15.58;;;;;;;2.56;83.74;101484.68;1824628;78;21008;-57
2020/12/17 04:15:37;;;;;;;26.75;17.55;;;;;;;2.57;83.81;101482.80;1824486;78;21012;-57
2020/12/17 04:18:05;;;;;;;25.17;17.05;;;;;;;2.64;83.79;101482.86;1824466;78;21200;-57
2020/12/17 04:20:33;;;;;;;29.75;18.52;;;;;;;2.68;83.67;101486.88;1824311;78;21547;-57
2020/12/17 04:23:01;;;;;;;25.55;16.00;;;;;;;2.68;83.56;101487.70;1824585;78;21555;-57
2020/12/17 04:25:29;;;;;;;20.90;14.45;;;;;;;2.70;83.68;101491.08;1824202;78;21040;-58
2020/12/17 04:27:56;;;;;;;24.55;15.05;;;;;;;2.72;83.51;101485.45;1824481;78;21012;-57
2020/12/17 04:30:24;;;;;;;31.15;18.85;;;;;;;2.71;83.47;101485.12;1824366;78;21192;-57
2020/12/17 04:32:52;;;;;;;31.77;19.77;;;;;;;2.71;83.39;101479.16;1824092;77;21000;-57
2020/12/17 04:35:20;;;;;;;33.35;20.48;;;;;;;2.69;83.29;101489.39;1824377;78;21040;-57
2020/12/17 04:37:48;;;;;;;30.60;21.17;;;;;;;2.67;83.27;101479.27;1824274;78;20976;-57
2020/12/17 04:40:17;;;;;;;27.15;17.20;;;;;;;2.70;83.43;101484.79;1824440;78;21028;-57
2020/12/17 04:42:47;;;;;;;24.32;16.82;;;;;;;2.73;83.40;101476.25;1824513;78;21185;-57
2020/12/17 04:45:16;;;;;;;26.95;17.45;;;;;;;2.78;83.30;101482.47;1824280;78;21048;-57
2020/12/17 04:47:47;;;;;;;33.45;19.82;;;;;;;2.83;83.16;101488.13;1824450;78;21020;-56
2020/12/17 04:50:16;;;;;;;30.02;18.25;;;;;;;2.84;82.90;101477.61;1824202;77;21571;-57
2020/12/17 04:52:44;;;;;;;29.37;18.30;;;;;;;2.84;82.77;101481.68;1824442;78;20969;-57
2020/12/17 04:55:12;;;;;;;27.60;17.50;;;;;;;2.85;82.77;101482.84;1824398;78;21600;-58
2020/12/17 04:57:44;;;;;;;34.40;20.45;;;;;;;2.88;82.76;101485.69;1824264;78;21043;-57
2020/12/17 05:00:16;;;;;;;32.53;19.07;;;;;;;2.89;82.59;101480.59;1824380;78;21113;-57
2020/12/17 05:02:47;;;;;;;33.70;19.40;;;;;;;2.89;82.50;101480.59;1824402;78;21039;-56
2020/12/17 05:05:16;;;;;;;48.70;27.98;;;;;;;2.89;82.49;101481.41;1824604;78;20972;-57
2020/12/17 05:07:44;;;;;;;40.23;21.50;;;;;;;2.91;82.42;101482.58;1824372;78;22142;-58
2020/12/17 05:10:12;;;;;;;40.00;20.70;;;;;;;2.88;82.14;101492.47;1824353;78;20968;-56
2020/12/17 05:12:40;;;;;;;38.73;21.17;;;;;;;2.75;82.18;101489.95;1824540;78;21669;-57
2020/12/17 05:15:09;;;;;;;48.15;27.37;;;;;;;2.69;82.22;101488.03;1824262;78;21003;-57
2020/12/17 05:17:36;;;;;;;47.55;29.23;;;;;;;2.67;82.45;101486.05;1824434;78;22078;-56
2020/12/17 05:20:06;;;;;;;63.55;38.50;;;;;;;2.67;82.62;101486.05;1824308;78;21376;-57
2020/12/17 05:22:36;;;;;;;54.58;32.90;;;;;;;2.70;82.52;101486.14;1824234;78;21055;-57
2020/12/17 05:25:04;;;;;;;56.18;35.80;;;;;;;2.70;82.53;101487.00;1824491;78;21004;-57
2020/12/17 05:27:32;;;;;;;58.10;32.67;;;;;;;2.74;82.46;101488.30;1824304;78;21008;-57
2020/12/17 05:30:00;;;;;;;57.70;32.70;;;;;;;2.74;82.32;101491.51;1797567;78;21012;-56
2020/12/17 05:32:28;;;;;;;59.63;36.17;;;;;;;2.75;82.27;101488.59;1797281;78;21137;-57
2020/12/17 05:34:56;;;;;;;65.85;43.42;;;;;;;2.84;82.39;101495.25;1824153;77;21016;-57
2020/12/17 05:37:24;;;;;;;70.95;43.08;;;;;;;2.89;82.16;101502.30;1794712;78;21020;-57
2020/12/17 05:39:55;;;;;;;79.58;42.75;;;;;;;2.93;81.89;101499.52;1824266;78;21015;-57
2020/12/17 05:42:22;;;;;;;81.25;44.30;;;;;;;2.89;81.59;101505.02;1794853;78;20989;-57
2020/12/17 05:44:50;;;;;;;70.42;37.40;;;;;;;2.84;81.76;101505.58;1791097;79;21609;-57
2020/12/17 05:47:19;;;;;;;78.75;44.98;;;;;;;2.84;81.71;101508.81;1758927;80;21015;-57
2020/12/17 05:49:46;;;;;;;70.00;41.58;;;;;;;2.78;81.64;101503.66;1789448;79;21116;-57
2020/12/17 05:52:21;;;;;;;67.67;39.83;;;;;;;2.79;81.87;101516.69;1784355;80;22078;-57
2020/12/17 05:54:58;;;;;;;60.80;39.08;;;;;;;2.79;81.83;101515.33;1791708;78;21185;-57
2020/12/17 05:57:25;;;;;;;;;;;;;;;2.75;81.91;101513.02;1801926;79;21206;-57
2020/12/17 06:00:01;;;;;;;59.45;40.90;;;;;;;2.75;81.96;101518.44;1765177;81;20135;-57
2020/12/17 06:02:35;;;;;;;66.77;43.50;;;;;;;2.80;81.94;101526.02;1789555;79;21002;-57
2020/12/17 06:05:12;;;;;;;69.50;42.85;;;;;;;2.84;81.81;101525.92;1796181;79;21014;-58
2020/12/17 06:07:50;;;;;;;62.85;42.55;;;;;;;2.87;81.84;101531.48;1798968;79;21041;-59
2020/12/17 06:10:23;;;;;;;75.78;44.23;;;;;;;2.91;81.82;101529.54;1799600;79;22271;-57
2020/12/17 06:12:57;;;;;;;84.07;50.95;;;;;;;2.90;81.62;101525.17;1799902;79;21048;-57
2020/12/17 06:15:28;;;;;;;82.22;50.85;;;;;;;2.89;81.61;101530.80;1799807;79;21114;-57
2020/12/17 06:18:02;;;;;;;77.95;49.27;;;;;;;2.88;81.51;101533.17;1799878;79;21280;-57
2020/12/17 06:20:33;;;;;;;64.53;39.42;;;;;;;2.85;81.62;101532.22;1799808;79;21009;-56
2020/12/17 06:23:07;;;;;;;51.50;32.90;;;;;;;2.88;81.61;101529.94;1799894;79;21208;-56
2020/12/17 06:25:36;;;;;;;44.33;28.07;;;;;;;2.90;81.59;101532.45;1799858;79;21394;-57
2020/12/17 06:28:05;;;;;;;62.80;37.20;;;;;;;2.90;81.36;101534.67;1799918;79;21228;-57
2020/12/17 06:30:35;;;;;;;72.17;40.40;;;;;;;2.87;81.14;101528.28;1772656;79;21941;-57
2020/12/17 06:33:04;;;;;;;80.83;47.90;;;;;;;2.88;81.23;101529.11;1798721;79;21069;-57
2020/12/17 06:35:50;;;;;;;97.95;56.13;;;;;;;2.94;81.23;101537.81;1830345;78;21150;-57
2020/12/17 06:38:27;;;;;;;77.37;46.40;;;;;;;2.97;81.04;101536.06;1830321;78;21013;-58
2020/12/17 06:40:55;;;;;;;47.48;29.42;;;;;;;2.96;80.96;101531.69;1830517;78;21023;-57
2020/12/17 06:43:38;;;;;;;45.63;27.32;;;;;;;2.96;80.83;101534.41;1799539;78;21053;-57
2020/12/17 06:46:06;;;;;;;53.35;38.17;;;;;;;2.98;80.64;101539.11;1830471;77;21639;-59
2020/12/17 06:48:38;;;;;;;48.42;33.10;;;;;;;2.96;80.38;101539.83;1790118;78;22562;-58
2020/12/17 06:51:38;;;;;;;51.18;34.45;;;;;;;2.98;80.31;101543.18;1829957;77;20998;-59
2020/12/17 06:54:24;;;;;;;57.70;38.40;;;;;;;3.00;80.23;101542.48;1790915;80;21026;-59
2020/12/17 06:57:07;;;;;;;50.58;33.67;;;;;;;2.99;79.99;101555.72;1790567;79;21107;-59
2020/12/17 06:59:35;;;;;;;50.98;35.38;;;;;;;2.96;79.93;101554.77;1790853;80;21014;-58
2020/12/17 07:02:05;;;;;;;60.80;42.38;;;;;;;2.93;79.96;101556.52;1791940;78;22256;-59
2020/12/17 07:04:44;;;;;;;60.33;43.13;;;;;;;2.93;79.92;101561.41;1810909;78;21013;-58
2020/12/17 07:07:24;;;;;;;46.65;31.57;;;;;;;2.96;79.98;101566.98;1797543;78;21050;-59
2020/12/17 07:09:56;;;;;;;51.42;35.05;;;;;;;3.01;80.03;101568.56;1769512;81;21053;-59
2020/12/17 07:12:40;;;;;;;62.10;39.92;;;;;;;3.08;79.98;101573.54;1782897;78;20947;-60
2020/12/17 07:15:34;;;;;;;44.20;31.42;;;;;;;3.11;79.79;101572.31;1787624;79;21384;-59
2020/12/17 07:18:25;;;;;;;39.95;27.70;;;;;;;3.12;79.60;101569.93;1802412;79;21599;-59
2020/12/17 07:21:05;;;;;;;54.23;33.45;;;;;;;3.07;79.52;101575.95;1757931;81;21045;-59
2020/12/17 07:23:39;;;;;;;49.25;34.98;;;;;;;3.03;79.39;101581.45;1780205;79;21054;-59
2020/12/17 07:26:12;;;;;;;48.45;33.35;;;;;;;3.02;79.54;101581.64;1804084;79;21793;-61
2020/12/17 07:28:40;;;;;;;48.23;31.75;;;;;;;3.04;79.41;101593.96;1803064;79;21382;-60
2020/12/17 07:31:09;;;;;;;51.20;33.02;;;;;;;3.04;79.39;101590.42;1795745;78;21057;-60
2020/12/17 07:33:42;;;;;;;54.33;32.70;;;;;;;3.05;79.29;101593.47;1794596;78;21000;-60
2020/12/17 07:36:11;;;;;;;47.90;33.67;;;;;;;3.06;79.30;101596.51;1821205;77;20977;-59
2020/12/17 07:38:39;;;;;;;48.58;33.88;;;;;;;3.09;79.19;101596.95;1803938;78;20923;-60
2020/12/17 07:41:25;;;;;;;48.40;34.35;;;;;;;3.12;79.14;101590.30;1814253;78;21198;-59
2020/12/17 07:43:53;;;;;;;50.33;35.50;;;;;;;3.15;79.19;101592.61;1812584;78;38449;-60
2020/12/17 07:46:39;;;;;;;64.00;41.75;;;;;;;3.18;79.21;101594.10;1817558;78;21006;-59
2020/12/17 07:49:28;;;;;;;52.45;35.95;;;;;;;3.20;79.05;101598.31;1817911;78;21561;-60
2020/12/17 07:51:55;;;;;;;45.33;31.07;;;;;;;3.20;78.96;101596.95;1809833;78;20911;-60
2020/12/17 07:54:23;;;;;;;41.80;30.05;;;;;;;3.21;78.87;101592.34;1804897;79;22061;-59
2020/12/17 07:56:59;;;;;;;47.20;30.00;;;;;;;3.22;79.00;101592.15;1804279;79;21019;-60
2020/12/17 07:59:27;;;;;;;46.85;29.85;;;;;;;3.23;78.88;101595.20;1809601;78;21082;-59
2020/12/17 08:02:03;;;;;;;42.48;26.65;;;;;;;3.28;78.68;101591.89;1803502;77;20991;-59
2020/12/17 08:04:28;;;;;;;41.75;27.25;;;;;;;3.28;78.58;101591.89;1805904;79;20994;-59
2020/12/17 08:06:56;;;;;;;49.70;30.80;;;;;;;3.31;78.49;101587.94;1803859;79;21562;-59
2020/12/17 08:09:23;;;;;;;47.75;31.87;;;;;;;3.32;78.36;101586.39;1800768;79;20980;-60
2020/12/17 08:11:55;;;;;;;45.43;30.40;;;;;;;3.35;78.12;101592.78;1803483;79;20982;-59
2020/12/17 08:14:24;;;;;;;42.43;29.55;;;;;;;3.34;78.00;101594.33;1802592;78;21548;-60
2020/12/17 08:17:06;;;;;;;50.48;33.58;;;;;;;3.34;78.04;101591.09;1805776;78;20962;-60
2020/12/17 08:19:34;;;;;;;49.27;29.87;;;;;;;3.38;78.13;101592.91;1806793;78;21377;-60
2020/12/17 08:22:03;;;;;;;61.92;36.17;;;;;;;3.41;77.94;101593.34;1814268;78;21020;-60
2020/12/17 08:27:08;;;;;;;54.27;34.30;;;;;;;3.49;77.74;101603.73;1840914;76;22557;-60
2020/12/17 08:29:41;;;;;;;50.67;31.60;;;;;;;3.44;77.50;101605.69;1813355;78;21631;-60
2020/12/17 08:32:09;;;;;;;55.95;36.00;;;;;;;3.41;77.32;101606.92;1749405;80;21373;-61
2020/12/17 08:34:40;;;;;;;43.08;27.65;;;;;;;3.38;77.39;101605.95;1716089;82;21073;-60
2020/12/17 08:37:18;;;;;;;49.35;30.80;;;;;;;3.39;77.57;101604.93;1668109;82;21235;-60
2020/12/17 08:40:01;;;;;;;55.95;35.17;;;;;;;3.40;77.44;101601.19;1721608;82;20981;-60
2020/12/17 08:42:35;;;;;;;49.93;32.15;;;;;;;3.41;77.37;101601.48;1729914;81;21071;-60
2020/12/17 08:45:07;;;;;;;42.60;27.10;;;;;;;3.40;77.32;101599.83;1726379;81;21398;-60
2020/12/17 08:47:37;;;;;;;47.88;31.02;;;;;;;3.38;77.42;101612.75;1731486;81;21085;-60
2020/12/17 08:50:06;;;;;;;45.35;28.70;;;;;;;3.37;77.48;101611.09;1751423;81;21687;-60
2020/12/17 08:52:34;;;;;;;48.02;29.35;;;;;;;3.40;77.48;101609.83;1741329;80;21013;-60
2020/12/17 08:55:08;;;;;;;61.98;41.00;;;;;;;3.38;77.36;101609.20;1731313;80;20978;-60
2020/12/17 08:57:36;;;;;;;46.05;26.75;;;;;;;3.37;77.59;101614.30;1734319;82;21263;-60
2020/12/17 09:00:08;;;;;;;45.25;28.32;;;;;;;3.40;77.56;101614.77;1735691;82;21024;-59
2020/12/17 09:02:36;;;;;;;49.27;32.63;;;;;;;3.48;77.39;101618.38;1732149;82;20989;-60
2020/12/17 09:05:03;;;;;;;50.73;30.12;;;;;;;3.46;77.26;101622.12;1736781;82;20993;-61
2020/12/17 09:07:31;;;;;;;44.08;28.12;;;;;;;3.41;77.28;101615.06;1734660;82;21105;-61
2020/12/17 09:10:15;;;;;;;46.48;29.05;;;;;;;3.39;77.18;101617.16;1732813;82;21295;-60
2020/12/17 09:12:44;;;;;;;51.45;31.40;;;;;;;3.33;77.33;101619.31;1732124;81;21088;-60
2020/12/17 09:15:14;;;;;;;52.98;33.75;;;;;;;3.31;77.64;101622.72;1733046;80;21009;-60
2020/12/17 09:17:42;;;;;;;48.05;30.17;;;;;;;3.32;77.66;101615.43;1734843;80;20954;-60
2020/12/17 09:20:19;;;;;;;50.52;32.03;;;;;;;3.35;77.92;101625.90;1733690;80;21012;-59
2020/12/17 09:22:47;;;;;;;60.38;35.15;;;;;;;3.39;77.82;101621.23;1725783;80;22195;-60
2020/12/17 09:25:18;;;;;;;53.10;33.10;;;;;;;3.42;77.51;101619.47;1777013;80;21045;-60
2020/12/17 09:27:45;;;;;;;58.70;34.48;;;;;;;3.37;77.65;101617.88;1695544;81;21070;-60
2020/12/17 09:30:17;;;;;;;64.70;38.35;;;;;;;3.38;77.66;101620.89;1728769;82;20977;-60
2020/12/17 09:33:01;;;;;;;56.68;35.08;;;;;;;3.42;77.53;101618.64;1734430;82;20950;-60
2020/12/17 09:35:33;;;;;;;47.23;32.93;;;;;;;3.41;77.55;101619.67;1730974;82;21394;-60
2020/12/17 09:38:13;;;;;;;47.67;29.67;;;;;;;3.44;77.45;101617.42;1730902;80;21037;-60
2020/12/17 09:40:42;;;;;;;53.10;32.33;;;;;;;3.46;77.39;101619.41;1748223;81;21038;-60
2020/12/17 09:43:14;;;;;;;58.60;35.50;;;;;;;3.46;77.15;101619.41;1732121;80;20993;-60
2020/12/17 09:45:47;;;;;;;62.17;35.35;;;;;;;3.46;77.21;101609.89;1736029;80;20988;-60
2020/12/17 09:48:20;;;;;;;78.57;48.25;;;;;;;3.53;77.03;101617.25;1738021;80;22256;-60
2020/12/17 09:51:06;;;;;;;60.28;38.88;;;;;;;3.48;76.95;101612.94;1730934;80;21021;-60
2020/12/17 09:53:38;;;;;;;69.50;41.20;;;;;;;3.42;76.93;101609.97;1734496;82;21983;-60
2020/12/17 09:56:10;;;;;;;50.25;32.30;;;;;;;3.35;77.17;101609.07;1734682;80;21414;-59
2020/12/17 09:58:43;;;;;;;50.92;29.40;;;;;;;3.34;77.26;101608.74;1738680;80;21420;-60
2020/12/17 10:01:12;;;;;;;49.55;32.38;;;;;;;3.34;77.38;101609.27;1732241;82;22961;-60
2020/12/17 10:03:39;;;;;;;47.40;31.52;;;;;;;3.37;77.49;101608.38;1771005;80;21532;-59
2020/12/17 10:06:07;;;;;;;47.33;31.60;;;;;;;3.46;77.48;101607.18;1746640;80;21049;-60
2020/12/17 10:08:34;;;;;;;53.78;33.92;;;;;;;3.54;77.27;101601.27;1735695;82;20995;-59
2020/12/17 10:11:06;;;;;;;53.25;31.65;;;;;;;3.58;77.07;101599.84;1736731;82;21025;-59
2020/12/17 10:13:36;;;;;;;55.28;33.67;;;;;;;3.63;76.89;101600.94;1736377;80;22076;-59
2020/12/17 10:16:04;;;;;;;55.08;37.38;;;;;;;3.67;76.92;101601.89;1731445;80;21033;-59
2020/12/17 10:18:31;;;;;;;58.08;40.92;;;;;;;3.72;76.83;101596.18;1732448;82;21004;-60
2020/12/17 10:20:59;;;;;;;86.30;59.65;;;;;;;3.77;76.62;101596.94;1737156;80;21005;-59
2020/12/17 10:23:28;;;;;;;58.60;35.90;;;;;;;3.81;76.56;101598.22;1732184;80;21462;-59
2020/12/17 10:25:55;;;;;;;59.15;39.85;;;;;;;3.87;76.38;101601.48;1734975;81;22212;-58
2020/12/17 10:28:23;;;;;;;57.73;36.42;;;;;;;3.89;75.99;101601.31;1729191;82;21015;-59
2020/12/17 10:30:51;;;;;;;61.70;37.55;;;;;;;3.89;75.92;101592.63;1731560;82;20997;-59
2020/12/17 10:33:19;;;;;;;82.12;39.13;;;;;;;3.90;75.89;101588.88;1767676;80;21642;-59
2020/12/17 10:35:46;;;;;;;65.70;38.58;;;;;;;3.97;75.91;101598.41;1777352;80;20994;-59
2020/12/17 10:38:14;;;;;;;61.75;39.63;;;;;;;4.03;75.85;101597.62;1776120;80;21442;-60
2020/12/17 10:40:42;;;;;;;59.98;34.78;;;;;;;4.10;75.79;101601.22;1777584;80;20960;-60
2020/12/17 10:43:10;;;;;;;54.75;35.60;;;;;;;4.15;75.48;101595.99;1777652;79;20996;-58
2020/12/17 10:45:38;;;;;;;55.83;35.90;;;;;;;4.19;75.37;101602.38;1780865;79;20966;-59
2020/12/17 10:48:05;;;;;;;56.30;32.15;;;;;;;4.18;75.36;101604.80;1779979;79;20992;-60
2020/12/17 10:50:33;;;;;;;42.30;27.00;;;;;;;4.20;75.21;101598.12;1780009;79;21200;-59
2020/12/17 10:53:00;;;;;;;49.85;32.35;;;;;;;4.20;75.05;101603.57;1750207;81;20967;-60
2020/12/17 10:55:28;;;;;;;58.28;36.90;;;;;;;4.13;74.98;101611.69;1743825;80;21561;-57
2020/12/17 10:57:56;;;;;;;50.55;31.33;;;;;;;4.12;75.14;101611.89;1742518;81;21007;-59
2020/12/17 11:00:24;;;;;;;77.45;49.05;;;;;;;4.13;75.18;101614.94;1710982;82;20997;-59
2020/12/17 11:02:51;;;;;;;54.33;36.03;;;;;;;4.14;75.10;101606.58;1725119;82;21200;-58
2020/12/17 11:05:19;;;;;;;53.05;34.63;;;;;;;4.17;74.92;101608.56;1772550;80;21023;-60
2020/12/17 11:07:47;;;;;;;57.30;34.10;;;;;;;4.21;74.77;101609.84;1776471;80;20998;-58
2020/12/17 11:10:14;;;;;;;59.75;34.70;;;;;;;4.19;74.46;101611.91;1776259;80;21402;-58
2020/12/17 11:12:42;;;;;;;60.70;37.55;;;;;;;4.19;74.71;101614.13;1777378;80;21003;-59
2020/12/17 11:15:10;;;;;;;62.93;38.55;;;;;;;4.23;74.62;101610.46;1750541;80;21381;-59
2020/12/17 11:17:40;;;;;;;57.62;35.33;;;;;;;4.21;74.52;101609.84;1739362;80;21033;-59
2020/12/17 11:20:07;;;;;;;56.13;36.35;;;;;;;4.18;74.60;101611.08;1741571;80;21535;-60
2020/12/17 11:22:35;;;;;;;74.10;50.52;;;;;;;4.21;74.59;101616.64;1769972;80;21007;-59
2020/12/17 11:25:03;;;;;;;271.75;193.30;;;;;;;4.12;74.30;101608.64;1749676;80;21594;-60
2020/12/17 11:27:30;;;;;;;133.10;92.67;;;;;;;4.03;74.54;101603.06;1742118;81;21568;-60
2020/12/17 11:29:58;;;;;;;84.80;53.55;;;;;;;4.03;74.86;101607.14;1728730;82;21034;-58
2020/12/17 11:32:26;;;;;;;66.77;44.13;;;;;;;4.05;74.97;101608.30;1732340;80;21016;-59